Time;durP1;ratioP1;P1;durP2;ratioP2;P2;SDS_P1;SDS_P2;PMS_P1;PMS_P2;Temp;Humidity;BMP_temperature;BMP_pressure;BME280_temperature;BME280_humidity;BME280_pressure;Samples;Min_cycle;Max_cycle;Signal;HPM_P1;HPM_P2
2023/05/13 00:02:12;;;;;;;13.07;11.75;;;11.00;99.90;;;;;;5043071;28;20108;-79
2023/05/13 00:04:38;;;;;;;12.65;10.93;;;11.30;99.90;;;;;;5024888;28;20036;-80
2023/05/13 00:07:04;;;;;;;15.48;11.27;;;11.10;99.90;;;;;;5023490;28;20029;-80
2023/05/13 00:09:29;;;;;;;12.18;9.90;;;11.10;99.90;;;;;;5010550;28;20029;-80
2023/05/13 00:11:55;;;;;;;13.65;10.52;;;11.10;99.90;;;;;;5041846;28;20099;-81
2023/05/13 00:14:20;;;;;;;8.65;7.47;;;11.20;99.90;;;;;;5042534;28;20029;-81
2023/05/13 00:16:46;;;;;;;13.45;9.43;;;11.20;99.90;;;;;;5024217;28;20547;-81
2023/05/13 00:19:12;;;;;;;15.85;11.15;;;11.10;99.90;;;;;;5042085;28;20546;-81
2023/05/13 00:21:37;;;;;;;17.27;11.18;;;11.00;99.90;;;;;;5023545;28;20111;-81
2023/05/13 00:24:03;;;;;;;17.38;11.63;;;10.90;99.90;;;;;;5026184;28;20057;-81
2023/05/13 00:26:29;;;;;;;20.85;11.57;;;11.00;99.90;;;;;;5010199;28;20083;-81
2023/05/13 00:28:55;;;;;;;12.30;10.77;;;10.90;99.90;;;;;;5042277;28;20080;-81
2023/05/13 00:31:20;;;;;;;12.63;10.60;;;10.80;99.90;;;;;;5026001;28;20082;-82
2023/05/13 00:33:46;;;;;;;14.52;12.48;;;10.70;99.90;;;;;;5010027;28;20673;-81
2023/05/13 00:36:11;;;;;;;19.52;11.88;;;10.50;99.90;;;;;;5040482;28;20086;-81
2023/05/13 00:38:37;;;;;;;19.55;12.38;;;10.50;99.90;;;;;;5042445;28;20067;-80
2023/05/13 00:41:02;;;;;;;16.77;12.57;;;10.40;99.90;;;;;;5037464;28;20112;-80
2023/05/13 00:43:28;;;;;;;21.45;13.07;;;10.30;99.90;;;;;;5008461;28;20374;-81
2023/05/13 00:45:54;;;;;;;18.35;12.70;;;10.30;99.90;;;;;;5023161;28;20029;-80
2023/05/13 00:48:20;;;;;;;13.32;11.55;;;10.30;99.90;;;;;;5043899;28;20067;-81
2023/05/13 00:50:46;;;;;;;16.95;12.57;;;10.30;99.90;;;;;;5025210;28;20033;-80
2023/05/13 00:53:12;;;;;;;10.60;9.45;;;10.30;99.90;;;;;;5042863;28;20040;-80
2023/05/13 00:55:42;;;;;;;12.15;10.93;;;10.40;99.90;;;;;;5042626;28;20055;-80
2023/05/13 00:58:07;;;;;;;12.27;11.02;;;10.40;99.90;;;;;;5024751;28;20698;-81
2023/05/13 01:00:34;;;;;;;12.75;11.45;;;10.40;99.90;;;;;;5025426;28;20102;-81
2023/05/13 01:03:04;;;;;;;10.38;9.02;;;10.40;99.90;;;;;;5025300;28;20099;-81
2023/05/13 01:05:36;;;;;;;14.77;12.10;;;10.40;99.90;;;;;;5008798;28;20043;-80
2023/05/13 01:08:12;;;;;;;14.27;10.10;;;10.40;99.90;;;;;;5040533;28;20044;-80
2023/05/13 01:10:46;;;;;;;10.73;7.70;;;10.30;99.90;;;;;;5039664;28;20060;-80
2023/05/13 01:13:13;;;;;;;9.55;8.32;;;10.30;99.90;;;;;;5025668;28;20504;-80
2023/05/13 01:15:46;;;;;;;9.15;8.25;;;10.30;99.90;;;;;;5021707;28;20108;-80
2023/05/13 01:18:19;;;;;;;9.52;8.02;;;10.40;99.90;;;;;;5024281;28;20030;-81
2023/05/13 01:20:45;;;;;;;13.68;10.15;;;10.30;99.90;;;;;;5025153;28;20033;-81
2023/05/13 01:23:10;;;;;;;13.15;9.02;;;10.20;99.90;;;;;;5023724;28;20606;-81
2023/05/13 01:25:37;;;;;;;9.15;8.07;;;10.20;99.90;;;;;;5041803;28;20555;-80
2023/05/13 01:28:03;;;;;;;9.48;8.43;;;10.20;99.90;;;;;;5025357;28;20037;-81
2023/05/13 01:30:28;;;;;;;14.15;10.43;;;10.10;99.90;;;;;;5022020;28;20025;-80
2023/05/13 01:32:55;;;;;;;11.85;8.52;;;10.10;99.90;;;;;;5040202;28;20047;-80
2023/05/13 01:35:20;;;;;;;9.85;8.52;;;10.10;99.90;;;;;;5025498;28;20037;-81
2023/05/13 01:37:46;;;;;;;14.23;10.35;;;10.10;99.90;;;;;;5024030;28;20040;-81
2023/05/13 01:40:12;;;;;;;10.73;7.68;;;10.10;99.90;;;;;;5025959;28;21227;-81
2023/05/13 01:42:38;;;;;;;11.38;8.57;;;10.10;99.90;;;;;;5022790;28;20037;-81
2023/05/13 01:45:05;;;;;;;13.00;8.80;;;10.10;99.90;;;;;;5036322;28;20485;-81
2023/05/13 01:47:30;;;;;;;8.65;7.75;;;10.10;99.90;;;;;;5023976;28;20063;-81
2023/05/13 01:49:56;;;;;;;9.63;8.63;;;10.00;99.90;;;;;;5007585;28;20528;-80
2023/05/13 01:52:21;;;;;;;8.18;7.38;;;10.00;99.90;;;;;;5025363;28;20039;-81
2023/05/13 01:54:47;;;;;;;11.77;9.68;;;10.00;99.90;;;;;;5006866;28;20469;-82
2023/05/13 01:57:13;;;;;;;16.73;9.88;;;9.80;99.90;;;;;;5000482;28;20037;-81
2023/05/13 01:59:38;;;;;;;15.13;11.50;;;9.60;99.90;;;;;;5008019;28;20048;-81
2023/05/13 02:02:08;;;;;;;14.50;12.65;;;9.50;99.90;;;;;;5023933;28;20041;-79
2023/05/13 02:04:34;;;;;;;15.75;11.38;;;9.40;99.90;;;;;;5006860;28;20033;-81
2023/05/13 02:06:59;;;;;;;15.25;11.63;;;9.30;99.90;;;;;;5021563;28;20427;-82
2023/05/13 02:09:25;;;;;;;15.55;11.85;;;9.20;99.90;;;;;;5038999;28;20072;-82
2023/05/13 02:11:50;;;;;;;13.40;11.95;;;9.10;99.90;;;;;;5022275;28;20048;-83
2023/05/13 02:14:16;;;;;;;14.52;12.55;;;9.20;99.90;;;;;;5021509;28;20033;-82
2023/05/13 02:16:42;;;;;;;15.43;12.75;;;9.20;99.90;;;;;;5024283;28;20119;-83
2023/05/13 02:19:07;;;;;;;14.30;12.07;;;9.30;99.90;;;;;;5031536;28;20053;-83
2023/05/13 02:21:33;;;;;;;18.33;11.98;;;9.40;99.90;;;;;;5024389;28;20053;-82
2023/05/13 02:23:58;;;;;;;13.48;11.35;;;9.30;99.90;;;;;;5022842;28;20033;-82
2023/05/13 02:26:24;;;;;;;13.80;11.93;;;9.00;99.90;;;;;;5039702;28;20470;-82
2023/05/13 02:28:49;;;;;;;14.82;13.05;;;9.00;99.90;;;;;;5021624;28;20033;-83
2023/05/13 02:31:15;;;;;;;19.70;12.43;;;8.90;99.90;;;;;;5023488;28;20060;-83
2023/05/13 02:33:41;;;;;;;13.18;11.80;;;8.90;99.90;;;;;;5022625;28;20033;-83
2023/05/13 02:36:06;;;;;;;18.83;13.18;;;8.90;99.90;;;;;;5023541;28;20039;-83
2023/05/13 02:38:32;;;;;;;16.35;12.85;;;8.90;99.90;;;;;;5021606;28;20132;-83
2023/05/13 02:40:59;;;;;;;15.75;13.38;;;8.90;99.90;;;;;;5021688;28;20041;-83
2023/05/13 02:43:26;;;;;;;15.55;12.57;;;8.80;99.90;;;;;;5007348;28;20021;-82
2023/05/13 02:45:52;;;;;;;19.70;14.50;;;8.80;99.90;;;;;;5017374;28;20028;-83
2023/05/13 02:48:17;;;;;;;16.00;13.77;;;8.80;99.90;;;;;;5024108;28;20033;-83
2023/05/13 02:50:43;;;;;;;18.63;13.57;;;8.80;99.90;;;;;;5005297;28;20056;-83
2023/05/13 02:53:08;;;;;;;15.93;13.40;;;8.70;99.90;;;;;;5022540;28;20040;-83
2023/05/13 02:55:34;;;;;;;16.10;14.32;;;8.80;99.90;;;;;;5020651;28;20491;-84
2023/05/13 02:57:59;;;;;;;15.48;13.80;;;8.70;99.90;;;;;;5036904;28;20474;-82
2023/05/13 03:00:25;;;;;;;18.50;14.88;;;8.70;99.90;;;;;;5026055;28;20033;-83
2023/05/13 03:02:51;;;;;;;23.55;14.40;;;8.70;99.90;;;;;;5024616;28;20025;-83
2023/05/13 03:05:16;;;;;;;18.48;14.07;;;8.70;99.90;;;;;;5030342;28;20021;-84
2023/05/13 03:07:42;;;;;;;18.73;15.88;;;8.90;99.90;;;;;;5029338;28;20053;-82
2023/05/13 03:10:08;;;;;;;17.35;15.05;;;8.80;99.90;;;;;;5041467;28;20125;-85
2023/05/13 03:12:33;;;;;;;20.10;15.02;;;8.60;99.90;;;;;;5027801;28;20064;-82
2023/05/13 03:14:59;;;;;;;18.33;14.90;;;8.60;99.90;;;;;;5013670;28;20025;-82
2023/05/13 03:17:25;;;;;;;16.23;13.73;;;8.50;99.90;;;;;;5029316;28;20485;-81
2023/05/13 03:19:50;;;;;;;21.02;14.63;;;8.50;99.90;;;;;;5012011;28;20032;-83
2023/05/13 03:22:16;;;;;;;15.77;13.95;;;8.50;99.90;;;;;;5010842;28;20481;-83
2023/05/13 03:24:42;;;;;;;16.58;14.85;;;8.50;99.90;;;;;;5027707;28;20485;-82
2023/05/13 03:27:07;;;;;;;19.05;14.18;;;8.50;99.90;;;;;;5027768;28;20083;-82
2023/05/13 03:29:33;;;;;;;16.27;14.32;;;8.60;99.90;;;;;;5012618;28;20037;-82
2023/05/13 03:31:58;;;;;;;15.35;13.75;;;8.50;99.90;;;;;;5039935;28;20048;-82
2023/05/13 03:34:24;;;;;;;16.60;13.65;;;8.50;99.90;;;;;;5004408;28;20040;-82
2023/05/13 03:36:50;;;;;;;22.52;16.02;;;8.50;99.90;;;;;;5027329;28;20121;-82
2023/05/13 03:39:16;;;;;;;19.05;14.52;;;8.50;99.90;;;;;;5028165;28;20588;-82
2023/05/13 03:41:41;;;;;;;25.10;16.65;;;8.40;99.90;;;;;;5027375;28;20436;-83
2023/05/13 03:44:07;;;;;;;19.83;16.67;;;8.30;99.90;;;;;;5027687;28;20068;-83
2023/05/13 03:46:32;;;;;;;24.00;18.55;;;8.30;99.90;;;;;;5027552;28;20053;-82
2023/05/13 03:48:58;;;;;;;22.73;17.38;;;8.40;99.90;;;;;;5025049;28;20033;-82
2023/05/13 03:51:24;;;;;;;21.73;17.50;;;8.40;99.90;;;;;;5011604;28;20029;-83
2023/05/13 03:53:50;;;;;;;15.35;12.40;;;8.30;99.90;;;;;;5000772;28;20268;-83
2023/05/13 03:56:15;;;;;;;15.75;11.95;;;8.40;99.90;;;;;;5010782;28;20723;-83
2023/05/13 03:58:41;;;;;;;15.95;13.68;;;8.50;99.90;;;;;;5011629;28;20436;-83
2023/05/13 04:01:07;;;;;;;15.63;11.18;;;8.50;99.90;;;;;;5028266;28;20105;-83
2023/05/13 04:03:33;;;;;;;19.77;13.73;;;8.50;99.90;;;;;;5027889;28;20051;-83
2023/05/13 04:05:59;;;;;;;23.45;14.23;;;8.30;99.90;;;;;;5009241;28;20042;-83
2023/05/13 04:08:24;;;;;;;18.85;15.05;;;8.30;99.90;;;;;;5012426;28;20091;-83
2023/05/13 04:10:50;;;;;;;16.33;13.70;;;8.20;99.90;;;;;;5026672;28;20040;-83
2023/05/13 04:13:16;;;;;;;21.00;15.38;;;8.20;99.90;;;;;;5010886;28;20439;-83
2023/05/13 04:15:41;;;;;;;17.90;15.68;;;8.10;99.90;;;;;;5011434;28;20044;-83
2023/05/13 04:18:07;;;;;;;22.38;15.70;;;8.20;99.90;;;;;;5038009;28;20393;-83
2023/05/13 04:20:32;;;;;;;18.23;16.05;;;8.30;99.90;;;;;;5041681;28;20021;-84
2023/05/13 04:22:58;;;;;;;24.20;17.73;;;8.30;99.90;;;;;;5041128;28;20067;-83
2023/05/13 04:25:23;;;;;;;23.42;18.42;;;8.30;99.90;;;;;;5021711;28;20025;-83
2023/05/13 04:27:49;;;;;;;24.35;18.90;;;8.30;99.90;;;;;;5039759;28;20023;-83
2023/05/13 04:30:15;;;;;;;18.55;15.60;;;8.30;99.90;;;;;;5011743;28;20107;-83
2023/05/13 04:32:40;;;;;;;30.35;16.77;;;8.30;99.90;;;;;;5039526;28;20752;-83
2023/05/13 04:35:06;;;;;;;26.33;15.93;;;8.30;99.90;;;;;;5027977;28;20028;-83
2023/05/13 04:37:32;;;;;;;20.15;15.27;;;8.40;99.90;;;;;;5027293;28;20108;-83
2023/05/13 04:39:57;;;;;;;21.58;17.23;;;8.50;99.90;;;;;;5027223;28;20477;-83
2023/05/13 04:42:23;;;;;;;19.80;16.73;;;8.60;99.90;;;;;;5026172;28;20105;-84
2023/05/13 04:44:48;;;;;;;24.65;17.42;;;8.70;99.90;;;;;;5027132;28;20045;-83
2023/05/13 04:47:14;;;;;;;29.55;20.17;;;8.80;99.90;;;;;;5023251;28;20049;-84
2023/05/13 04:49:39;;;;;;;29.58;20.88;;;8.90;99.90;;;;;;5026971;28;20037;-83
2023/05/13 04:52:05;;;;;;;32.40;21.95;;;9.10;99.90;;;;;;5025929;28;20596;-83
2023/05/13 04:54:31;;;;;;;25.35;18.60;;;9.20;99.90;;;;;;5008985;28;20551;-82
2023/05/13 04:56:56;;;;;;;138.90;35.45;;;9.40;99.90;;;;;;5026432;28;20037;-82
2023/05/13 04:59:22;;;;;;;32.67;23.83;;;9.40;99.90;;;;;;5043530;28;20394;-83
2023/05/13 05:01:48;;;;;;;43.60;26.75;;;9.50;99.90;;;;;;5026504;28;20384;-83
2023/05/13 05:04:13;;;;;;;197.20;41.88;;;9.70;99.90;;;;;;5042592;28;20378;-83
2023/05/13 05:06:39;;;;;;;207.43;43.15;;;9.90;99.90;;;;;;5008613;28;20049;-82
2023/05/13 05:09:04;;;;;;;294.52;56.60;;;10.00;99.90;;;;;;5025778;28;20037;-82
2023/05/13 05:11:30;;;;;;;162.27;38.80;;;10.10;99.90;;;;;;5038123;28;20044;-82
2023/05/13 05:13:55;;;;;;;254.38;54.28;;;10.30;99.90;;;;;;5024957;28;20121;-83
2023/05/13 05:16:21;;;;;;;243.98;51.60;;;10.40;99.90;;;;;;5007231;28;20400;-83
2023/05/13 05:18:46;;;;;;;58.28;35.47;;;10.60;99.90;;;;;;5041635;28;20037;-83
2023/05/13 05:21:12;;;;;;;61.50;35.75;;;10.70;99.90;;;;;;5007817;28;20022;-83
2023/05/13 05:23:38;;;;;;;66.63;37.40;;;10.90;99.90;;;;;;5024612;28;20481;-83
2023/05/13 05:26:03;;;;;;;65.70;39.53;;;11.10;99.90;;;;;;5033528;28;20026;-82
2023/05/13 05:28:30;;;;;;;75.35;43.90;;;11.20;99.90;;;;;;5034980;28;20040;-82
2023/05/13 05:30:55;;;;;;;75.10;44.70;;;11.40;99.90;;;;;;5026170;28;20166;-82
2023/05/13 05:33:22;;;;;;;81.10;47.70;;;11.60;99.90;;;;;;5026315;28;20123;-83
2023/05/13 05:35:48;;;;;;;90.85;52.10;;;11.70;99.90;;;;;;5008336;28;20029;-83
2023/05/13 05:38:13;;;;;;;80.22;48.40;;;12.00;99.90;;;;;;5005726;28;20029;-82
2023/05/13 05:40:41;;;;;;;92.97;54.35;;;12.10;99.90;;;;;;5026165;28;20076;-82
2023/05/13 05:43:07;;;;;;;99.07;55.38;;;12.20;99.90;;;;;;5035796;28;20037;-82
2023/05/13 05:45:36;;;;;;;90.72;55.90;;;12.40;99.90;;;;;;5026010;28;20048;-84
2023/05/13 05:48:02;;;;;;;92.80;53.40;;;12.60;99.90;;;;;;5039327;28;20088;-82
2023/05/13 05:50:27;;;;;;;104.35;60.97;;;12.80;99.90;;;;;;5025308;28;20037;-81
2023/05/13 05:52:53;;;;;;;104.88;64.80;;;13.00;99.90;;;;;;5024271;28;20040;-82
2023/05/13 05:55:19;;;;;;;109.38;66.35;;;13.10;99.90;;;;;;5042148;28;20511;-83
2023/05/13 05:57:44;;;;;;;99.85;65.00;;;13.30;99.90;;;;;;5012336;28;20401;-83
2023/05/13 06:00:11;;;;;;;96.88;63.15;;;13.50;99.90;;;;;;5024428;28;20051;-84
2023/05/13 06:02:38;;;;;;;96.93;61.30;;;13.60;99.90;;;;;;5039558;28;20090;-83
2023/05/13 06:05:03;;;;;;;90.60;59.70;;;13.80;99.90;;;;;;5040934;28;20041;-84
2023/05/13 06:07:29;;;;;;;86.28;61.95;;;14.00;99.90;;;;;;5025260;28;20496;-82
2023/05/13 06:09:55;;;;;;;79.95;57.47;;;14.20;99.90;;;;;;5026523;28;20033;-83
2023/05/13 06:12:21;;;;;;;61.28;48.70;;;14.40;99.90;;;;;;5041333;28;20041;-81
2023/05/13 06:14:47;;;;;;;57.83;44.90;;;14.50;99.90;;;;;;5039829;28;20029;-81
2023/05/13 06:17:13;;;;;;;46.60;37.58;;;14.60;99.90;;;;;;5009024;28;20033;-83
2023/05/13 06:19:41;;;;;;;42.70;35.17;;;14.90;99.90;;;;;;5039526;28;20022;-82
2023/05/13 06:22:07;;;;;;;31.80;27.73;;;15.00;99.90;;;;;;5038275;28;20112;-82
2023/05/13 06:24:33;;;;;;;28.52;23.10;;;15.20;99.90;;;;;;5040545;28;20029;-82
2023/05/13 06:26:58;;;;;;;26.67;21.75;;;15.40;99.90;;;;;;5038847;28;20558;-81
2023/05/13 06:29:24;;;;;;;20.80;17.92;;;15.50;99.90;;;;;;5023925;28;20033;-83
2023/05/13 06:31:49;;;;;;;20.00;17.00;;;15.70;99.90;;;;;;5009403;28;20040;-82
2023/05/13 06:34:15;;;;;;;16.45;14.07;;;15.80;99.90;;;;;;5026286;28;20416;-83
2023/05/13 06:36:42;;;;;;;15.30;12.65;;;15.90;99.90;;;;;;5029635;28;20731;-82
2023/05/13 06:39:08;;;;;;;17.13;14.35;;;16.00;99.90;;;;;;5043001;28;20143;-83
2023/05/13 06:41:34;;;;;;;18.17;12.88;;;16.10;99.90;;;;;;5044927;28;20029;-82
2023/05/13 06:43:59;;;;;;;16.05;11.95;;;16.30;99.90;;;;;;5047356;28;20368;-82
2023/05/13 06:46:25;;;;;;;14.57;13.02;;;16.40;99.90;;;;;;5013503;28;20488;-82
2023/05/13 06:48:52;;;;;;;15.65;13.45;;;16.60;99.90;;;;;;5027557;28;20032;-82
2023/05/13 06:51:18;;;;;;;13.40;11.77;;;17.00;99.90;;;;;;5043524;28;20485;-82
2023/05/13 06:53:43;;;;;;;21.70;12.95;;;17.10;99.90;;;;;;5044922;28;20033;-82
2023/05/13 06:56:09;;;;;;;15.15;12.43;;;17.10;99.90;;;;;;5044530;28;20029;-81
2023/05/13 06:58:34;;;;;;;14.18;12.13;;;17.10;99.90;;;;;;5043091;28;20052;-81
2023/05/13 07:01:00;;;;;;;13.90;12.40;;;17.20;99.90;;;;;;5039356;28;20163;-81
2023/05/13 07:03:26;;;;;;;15.00;12.38;;;17.20;99.90;;;;;;5045570;28;20029;-81
2023/05/13 07:05:51;;;;;;;12.27;10.93;;;17.20;99.90;;;;;;5027069;28;20068;-82
2023/05/13 07:08:17;;;;;;;14.60;12.45;;;17.30;99.90;;;;;;5028959;28;20022;-81
2023/05/13 07:10:43;;;;;;;12.80;10.65;;;17.40;99.90;;;;;;5010682;28;20036;-81
2023/05/13 07:13:10;;;;;;;13.70;11.85;;;17.60;99.90;;;;;;5041174;28;20413;-81
2023/05/13 07:15:35;;;;;;;14.88;12.40;;;17.70;99.90;;;;;;5027742;28;20028;-82
2023/05/13 07:18:01;;;;;;;18.75;13.05;;;17.90;99.90;;;;;;5041787;28;20033;-81
2023/05/13 07:20:26;;;;;;;17.02;12.00;;;17.80;99.90;;;;;;5041731;28;20036;-82
2023/05/13 07:22:52;;;;;;;13.63;11.50;;;18.00;99.90;;;;;;5024777;28;20062;-81
2023/05/13 07:25:18;;;;;;;18.40;12.48;;;18.10;99.90;;;;;;5043497;28;20071;-81
2023/05/13 07:27:43;;;;;;;18.50;12.55;;;18.10;99.90;;;;;;5035744;28;20057;-81
2023/05/13 07:30:10;;;;;;;15.85;11.93;;;18.10;99.90;;;;;;5042099;28;20455;-81
2023/05/13 07:32:36;;;;;;;13.77;11.68;;;18.10;99.90;;;;;;5041896;28;20546;-81
2023/05/13 07:35:02;;;;;;;13.90;11.27;;;18.20;99.90;;;;;;5024267;28;20108;-81
2023/05/13 07:37:28;;;;;;;14.45;11.23;;;18.40;99.90;;;;;;5045010;28;20032;-81
2023/05/13 07:39:53;;;;;;;16.63;10.63;;;18.70;99.90;;;;;;5043222;28;20029;-81
2023/05/13 07:42:19;;;;;;;11.00;9.73;;;18.80;99.90;;;;;;5042850;28;20466;-81
2023/05/13 07:44:45;;;;;;;15.02;9.52;;;19.10;99.90;;;;;;5027541;28;20036;-81
2023/05/13 07:47:11;;;;;;;10.70;9.60;;;19.30;99.90;;;;;;5025933;28;20059;-81
2023/05/13 07:49:36;;;;;;;13.60;9.80;;;19.30;99.90;;;;;;5042581;28;20071;-81
2023/05/13 07:52:02;;;;;;;13.85;10.10;;;19.50;99.90;;;;;;5042872;28;20424;-81
2023/05/13 07:54:28;;;;;;;11.73;9.98;;;19.80;99.90;;;;;;5008457;28;20033;-80
2023/05/13 07:56:53;;;;;;;14.68;10.02;;;20.10;99.90;;;;;;5023734;28;20507;-80
2023/05/13 07:59:19;;;;;;;9.00;8.10;;;20.30;99.90;;;;;;5026192;28;20033;-82
2023/05/13 08:01:45;;;;;;;13.57;8.73;;;20.50;99.90;;;;;;5010224;28;20399;-81
2023/05/13 08:04:10;;;;;;;8.27;7.45;;;20.70;99.90;;;;;;5011365;28;20623;-79
2023/05/13 08:06:36;;;;;;;10.00;8.23;;;20.70;99.90;;;;;;5024297;28;20507;-79
2023/05/13 08:09:01;;;;;;;10.65;9.20;;;21.00;99.90;;;;;;5041095;28;20483;-79
2023/05/13 08:11:27;;;;;;;11.60;7.75;;;21.20;99.90;;;;;;5009290;28;20041;-80
2023/05/13 08:13:53;;;;;;;10.32;7.68;;;21.20;99.90;;;;;;5023815;28;20037;-79
2023/05/13 08:16:18;;;;;;;9.45;8.13;;;21.40;99.90;;;;;;5024708;28;20048;-80
2023/05/13 08:18:44;;;;;;;11.85;7.80;;;21.50;99.90;;;;;;5025549;28;20029;-79
2023/05/13 08:21:10;;;;;;;8.65;6.90;;;21.70;99.90;;;;;;5023319;28;20439;-80
2023/05/13 08:23:36;;;;;;;9.60;7.00;;;21.80;99.90;;;;;;5023027;28;20051;-80
2023/05/13 08:26:02;;;;;;;10.43;6.30;;;22.00;99.90;;;;;;5040118;28;20113;-79
2023/05/13 08:28:28;;;;;;;7.70;6.00;;;22.10;99.90;;;;;;5043049;28;20668;-79
2023/05/13 08:30:54;;;;;;;9.55;7.13;;;22.30;99.90;;;;;;4997066;28;20544;-79
2023/05/13 08:33:19;;;;;;;11.55;7.53;;;22.50;99.90;;;;;;4991895;28;20182;-79
2023/05/13 08:35:45;;;;;;;8.68;7.88;;;22.60;99.90;;;;;;5026505;28;20033;-79
2023/05/13 08:38:11;;;;;;;13.95;9.13;;;22.80;99.90;;;;;;5024423;28;20041;-79
2023/05/13 08:40:37;;;;;;;13.77;8.50;;;23.00;99.90;;;;;;5010170;28;20040;-79
2023/05/13 08:43:03;;;;;;;8.38;7.57;;;23.30;99.90;;;;;;5025865;28;20038;-79
2023/05/13 08:45:29;;;;;;;8.65;7.78;;;23.20;99.90;;;;;;5006515;28;20117;-79
2023/05/13 08:47:58;;;;;;;12.32;7.20;;;23.10;99.90;;;;;;5024469;28;20060;-79
2023/05/13 08:50:24;;;;;;;9.95;7.93;;;23.00;99.90;;;;;;5025806;28;20528;-78
2023/05/13 08:52:51;;;;;;;7.90;7.07;;;23.20;99.90;;;;;;5015112;28;20053;-78
2023/05/13 08:55:16;;;;;;;7.80;7.05;;;23.30;99.90;;;;;;5023705;28;20033;-79
2023/05/13 08:57:42;;;;;;;10.27;6.63;;;23.40;99.90;;;;;;5007063;28;20477;-79
2023/05/13 09:00:08;;;;;;;12.57;7.30;;;23.40;99.90;;;;;;5025682;28;20040;-78
2023/05/13 09:02:36;;;;;;;7.47;6.78;;;23.50;99.90;;;;;;5025494;28;20033;-78
2023/05/13 09:05:08;;;;;;;10.63;7.60;;;23.70;99.90;;;;;;5003377;28;20477;-80
2023/05/13 09:07:34;;;;;;;13.25;7.07;;;24.10;99.90;;;;;;5007822;28;20699;-79
2023/05/13 09:09:59;;;;;;;11.55;7.80;;;24.00;99.90;;;;;;5006815;28;20036;-79
2023/05/13 09:12:44;;;;;;;13.80;8.40;;;23.90;99.90;;;;;;5042825;28;20053;-79
2023/05/13 09:15:11;;;;;;;8.55;7.05;;;24.00;99.90;;;;;;5042390;28;20056;-79
2023/05/13 09:17:38;;;;;;;9.75;7.78;;;24.10;99.90;;;;;;5020183;28;20095;-79
2023/05/13 09:20:08;;;;;;;9.18;6.72;;;24.20;99.90;;;;;;5022657;28;20026;-79
2023/05/13 09:22:33;;;;;;;11.88;6.60;;;24.20;99.90;;;;;;5025810;28;20036;-79
2023/05/13 09:24:59;;;;;;;9.93;7.05;;;24.30;99.90;;;;;;5024132;28;20079;-79
2023/05/13 09:27:38;;;;;;;7.25;6.05;;;24.40;99.90;;;;;;5001043;28;20068;-79
2023/05/13 09:30:04;;;;;;;10.35;6.45;;;24.50;99.90;;;;;;5021428;28;20120;-79
2023/05/13 09:32:30;;;;;;;7.47;5.63;;;24.50;99.90;;;;;;5007913;28;20557;-78
2023/05/13 09:34:56;;;;;;;6.93;6.10;;;24.60;99.90;;;;;;5007563;28;20037;-78
2023/05/13 09:37:22;;;;;;;8.82;6.65;;;24.50;99.90;;;;;;5024173;28;20119;-78
2023/05/13 09:39:49;;;;;;;9.63;5.68;;;24.70;99.90;;;;;;5006380;28;20033;-77
2023/05/13 09:42:18;;;;;;;10.20;6.00;;;24.70;99.90;;;;;;5024848;28;20053;-78
2023/05/13 09:44:44;;;;;;;5.35;4.78;;;25.00;98.80;;;;;;5007023;28;20432;-80
2023/05/13 09:47:13;;;;;;;7.95;5.40;;;25.00;99.90;;;;;;5006721;28;20926;-79
2023/05/13 09:49:40;;;;;;;8.55;4.95;;;25.20;99.90;;;;;;5024587;28;20033;-78
2023/05/13 09:52:10;;;;;;;6.32;5.10;;;25.20;99.30;;;;;;5024804;28;20084;-77
2023/05/13 09:54:35;;;;;;;5.50;5.00;;;25.40;99.90;;;;;;5008232;28;20032;-79
2023/05/13 09:57:01;;;;;;;8.73;4.57;;;25.50;95.10;;;;;;5009290;28;20409;-78
2023/05/13 09:59:30;;;;;;;6.85;5.63;;;25.60;95.60;;;;;;5024234;28;20075;-80
2023/05/13 10:01:58;;;;;;;5.70;4.78;;;25.60;94.80;;;;;;5021966;28;20037;-80
2023/05/13 10:04:24;;;;;;;14.77;5.68;;;25.60;94.80;;;;;;5023727;28;20064;-78
2023/05/13 10:06:50;;;;;;;10.07;4.53;;;25.70;92.90;;;;;;5040180;28;20084;-79
2023/05/13 10:09:15;;;;;;;12.60;4.88;;;25.70;94.40;;;;;;5023753;28;20094;-80
2023/05/13 10:11:43;;;;;;;8.85;4.60;;;25.80;94.30;;;;;;5027113;28;20160;-80
2023/05/13 10:14:08;;;;;;;6.50;4.50;;;25.70;95.00;;;;;;5024298;28;20083;-81
2023/05/13 10:16:34;;;;;;;6.53;4.57;;;25.90;95.70;;;;;;5025905;28;20029;-81
2023/05/13 10:18:59;;;;;;;6.65;4.43;;;26.00;95.80;;;;;;5010335;28;20021;-81
2023/05/13 10:21:28;;;;;;;7.35;4.28;;;26.00;96.20;;;;;;5010097;28;20037;-81
2023/05/13 10:23:54;;;;;;;9.30;4.88;;;26.30;95.40;;;;;;5011374;28;20029;-81
2023/05/13 10:26:21;;;;;;;6.43;4.95;;;26.80;91.40;;;;;;5012814;28;20041;-81
2023/05/13 10:28:47;;;;;;;6.87;4.10;;;26.70;91.40;;;;;;4654044;28;9999956;-81
2023/05/13 10:31:12;;;;;;;6.97;4.22;;;26.80;90.80;;;;;;5025554;28;20076;-81
2023/05/13 10:33:39;;;;;;;7.45;4.75;;;26.80;91.00;;;;;;5008499;28;20033;-80
2023/05/13 10:36:30;;;;;;;7.53;4.78;;;26.80;90.10;;;;;;5007646;28;20060;-80
2023/05/13 10:39:15;;;;;;;5.32;4.80;;;26.80;90.40;;;;;;5023227;28;20087;-79
2023/05/13 10:41:47;;;;;;;8.98;4.88;;;26.90;84.10;;;;;;5039607;28;20060;-79
2023/05/13 10:44:12;;;;;;;7.28;4.07;;;26.90;88.30;;;;;;5039507;28;20572;-78
2023/05/13 10:46:38;;;;;;;8.88;4.65;;;27.00;87.10;;;;;;5041245;28;20140;-78
2023/05/13 10:49:04;;;;;;;6.70;3.70;;;26.90;86.70;;;;;;5022802;28;20048;-78
2023/05/13 10:51:30;;;;;;;6.57;4.07;;;27.10;88.30;;;;;;5040718;28;20037;-77
2023/05/13 10:53:59;;;;;;;9.77;5.45;;;27.10;79.70;;;;;;5008378;28;20458;-77
2023/05/13 10:56:26;;;;;;;7.32;3.95;;;26.90;85.40;;;;;;5023763;28;20040;-77
2023/05/13 10:59:02;;;;;;;5.90;3.78;;;27.10;85.70;;;;;;5022506;28;20162;-77
2023/05/13 11:01:33;;;;;;;8.05;4.78;;;27.10;89.70;;;;;;5026812;28;20029;-76
2023/05/13 11:04:00;;;;;;;8.25;4.70;;;27.40;82.90;;;;;;4691842;28;9999745;-77
2023/05/13 11:06:35;;;;;;;9.05;4.25;;;27.60;79.70;;;;;;5022142;28;20861;-77
2023/05/13 11:09:12;;;;;;;6.57;3.97;;;27.50;85.90;;;;;;5054986;28;20669;-77
2023/05/13 11:11:38;;;;;;;6.82;3.63;;;27.70;82.70;;;;;;5008714;28;20041;-77
2023/05/13 11:14:19;;;;;;;10.23;4.20;;;27.60;86.80;;;;;;5020824;28;20064;-78
2023/05/13 11:17:08;;;;;;;12.75;4.00;;;27.80;82.30;;;;;;5023656;28;20036;-77
2023/05/13 11:19:36;;;;;;;4.45;3.97;;;27.90;80.50;;;;;;5023416;28;20151;-76
2023/05/13 11:22:09;;;;;;;5.95;3.90;;;28.10;84.80;;;;;;5021688;28;20052;-77
2023/05/13 11:24:35;;;;;;;6.35;4.45;;;28.20;84.70;;;;;;5020571;28;20028;-77
2023/05/13 11:27:13;;;;;;;10.48;3.85;;;28.20;78.10;;;;;;5008671;28;20029;-77
2023/05/13 11:29:44;;;;;;;8.82;4.00;;;28.40;78.40;;;;;;5039778;28;20511;-77
2023/05/13 11:32:10;;;;;;;9.20;4.13;;;28.20;76.90;;;;;;5023621;28;20048;-77
2023/05/13 11:34:36;;;;;;;5.47;3.58;;;28.40;82.80;;;;;;5009316;28;20397;-79
2023/05/13 11:37:08;;;;;;;6.35;3.50;;;28.70;74.70;;;;;;5025461;28;20139;-77
2023/05/13 11:39:34;;;;;;;7.03;3.95;;;28.60;76.10;;;;;;5020234;28;20043;-77
2023/05/13 11:42:00;;;;;;;7.18;3.80;;;28.70;75.50;;;;;;5010307;28;20314;-77
2023/05/13 11:44:26;;;;;;;5.95;3.90;;;28.70;73.50;;;;;;5010581;28;20031;-76
2023/05/13 11:46:54;;;;;;;5.75;4.13;;;28.70;76.60;;;;;;5009528;28;20040;-77
2023/05/13 11:49:42;;;;;;;9.82;4.25;;;28.70;74.80;;;;;;5028117;28;20029;-76
2023/05/13 11:52:11;;;;;;;8.55;4.93;;;28.80;75.40;;;;;;5020657;28;20037;-76
2023/05/13 11:54:53;;;;;;;9.13;4.32;;;28.70;73.80;;;;;;5026970;28;20029;-77
2023/05/13 11:57:23;;;;;;;8.10;3.97;;;28.90;76.30;;;;;;5040042;28;20132;-76
2023/05/13 11:59:59;;;;;;;5.97;3.67;;;28.90;77.50;;;;;;5025025;28;20512;-76
2023/05/13 12:02:30;;;;;;;3.95;3.47;;;29.10;74.40;;;;;;5021468;28;20029;-76
2023/05/13 12:05:00;;;;;;;4.30;3.53;;;29.20;71.40;;;;;;5022224;28;20037;-76
2023/05/13 12:07:25;;;;;;;6.22;4.30;;;29.30;69.20;;;;;;5023697;28;20119;-76
2023/05/13 12:09:52;;;;;;;5.93;4.00;;;29.40;65.30;;;;;;5042774;28;20423;-76
2023/05/13 12:12:18;;;;;;;5.90;3.75;;;29.40;68.30;;;;;;5024931;28;20135;-76
2023/05/13 12:14:49;;;;;;;4.07;3.10;;;29.40;70.00;;;;;;5023117;28;20030;-76
2023/05/13 12:17:17;;;;;;;9.77;3.45;;;29.60;69.70;;;;;;5027745;28;20132;-77
2023/05/13 12:20:05;;;;;;;6.40;3.70;;;29.80;69.60;;;;;;5025528;28;20025;-76
2023/05/13 12:22:34;;;;;;;6.03;3.58;;;30.00;67.10;;;;;;5038505;28;20026;-76
2023/05/13 12:25:20;;;;;;;5.43;3.78;;;30.00;69.80;;;;;;5009864;28;20029;-77
2023/05/13 12:27:51;;;;;;;11.75;3.85;;;30.50;69.40;;;;;;5028236;28;20033;-76
2023/05/13 12:30:17;;;;;;;9.98;3.45;;;30.40;69.00;;;;;;5038050;28;20489;-77
2023/05/13 12:32:43;;;;;;;4.80;3.40;;;30.40;66.90;;;;;;5007637;28;20465;-76
2023/05/13 12:35:14;;;;;;;4.57;3.40;;;30.30;66.30;;;;;;5024613;28;20135;-76